Time;durP1;ratioP1;P1;durP2;ratioP2;P2;SDS_P1;SDS_P2;PMS_P1;PMS_P2;Temp;Humidity;BMP_temperature;BMP_pressure;BME280_temperature;BME280_humidity;BME280_pressure;Samples;Min_cycle;Max_cycle;Signal;HPM_P1;HPM_P2
2023/12/22 00:00:48;;;;;;;7.40;3.20;;;;;;;3.27;78.46;95918.39;105019;1277;108887;-73
2023/12/22 00:03:36;;;;;;;7.70;3.10;;;;;;;3.25;78.91;95918.04;104886;1257;97526;-71
2023/12/22 00:06:04;;;;;;;7.10;3.30;;;;;;;3.23;78.75;95917.92;105020;1264;97958;-72
2023/12/22 00:08:31;;;;;;;5.00;3.00;;;;;;;3.21;78.52;95920.18;105096;1262;109907;-73
2023/12/22 00:10:59;;;;;;;7.40;3.30;;;;;;;3.20;78.80;95921.13;105047;1261;97541;-73
2023/12/22 00:13:27;;;;;;;5.90;3.20;;;;;;;3.19;78.71;95928.53;104849;1270;107573;-74
2023/12/22 00:15:55;;;;;;;7.50;3.30;;;;;;;3.19;78.87;95922.91;104937;1262;96683;-73
2023/12/22 00:18:23;;;;;;;7.00;3.70;;;;;;;3.20;78.59;95917.15;104767;1258;96605;-73
2023/12/22 00:20:51;;;;;;;6.90;3.50;;;;;;;3.21;78.86;95921.02;105175;1263;109566;-72
2023/12/22 00:23:19;;;;;;;6.70;3.50;;;;;;;3.23;78.80;95923.11;104817;1261;97655;-74
2023/12/22 00:25:47;;;;;;;7.50;3.70;;;;;;;3.25;79.17;95929.23;104720;1257;106399;-73
2023/12/22 00:28:15;;;;;;;6.30;3.40;;;;;;;3.25;79.02;95925.02;104963;1260;96655;-74
2023/12/22 00:30:42;;;;;;;7.10;3.60;;;;;;;3.27;78.92;95925.52;104848;1260;97173;-73
2023/12/22 00:33:10;;;;;;;5.10;3.20;;;;;;;3.30;78.83;95923.15;104795;1261;108864;-72
2023/12/22 00:35:38;;;;;;;6.80;3.90;;;;;;;3.33;78.84;95928.98;104923;1257;96602;-73
2023/12/22 00:38:06;;;;;;;8.00;3.60;;;;;;;3.37;78.82;95940.59;104924;1260;107310;-73
2023/12/22 00:40:34;;;;;;;5.90;3.20;;;;;;;3.39;78.79;95954.35;104974;1271;97402;-73
2023/12/22 00:43:02;;;;;;;7.50;3.60;;;;;;;3.44;78.66;95958.88;105152;1260;97823;-74
2023/12/22 00:45:30;;;;;;;8.30;3.60;;;;;;;3.47;78.64;95967.82;105171;1261;109892;-74
2023/12/22 00:47:58;;;;;;;7.00;3.30;;;;;;;3.49;78.76;95970.98;104815;1263;96612;-72
2023/12/22 00:50:26;;;;;;;5.80;3.40;;;;;;;3.51;78.95;95971.09;104723;1261;107771;-72
2023/12/22 00:52:54;;;;;;;8.20;3.10;;;;;;;3.55;78.97;95971.14;104861;1257;96632;-72
2023/12/22 00:55:21;;;;;;;8.90;3.70;;;;;;;3.57;79.16;95974.25;104783;1260;96608;-73
2023/12/22 00:57:49;;;;;;;6.50;3.10;;;;;;;3.58;79.29;95978.17;105043;1257;110041;-73
2023/12/22 01:00:18;;;;;;;7.90;3.20;;;;;;;3.60;78.59;95979.56;105084;1261;96592;-72
2023/12/22 01:02:45;;;;;;;8.40;3.80;;;;;;;3.63;79.07;95979.17;105016;1262;107231;-72
2023/12/22 01:05:14;;;;;;;6.70;3.40;;;;;;;3.63;79.09;95967.73;105058;1261;96949;-74
2023/12/22 01:07:42;;;;;;;6.50;3.40;;;;;;;3.64;79.11;95966.30;104954;1262;97872;-73
2023/12/22 01:10:10;;;;;;;4.20;2.80;;;;;;;3.66;79.01;95970.31;104834;1261;109933;-73
2023/12/22 01:12:38;;;;;;;6.20;3.30;;;;;;;3.68;78.64;95968.48;104958;1264;97558;-74
2023/12/22 01:15:06;;;;;;;6.80;3.10;;;;;;;3.71;78.71;95965.89;104825;1271;107614;-74
2023/12/22 01:17:34;;;;;;;7.40;3.40;;;;;;;3.74;78.75;95967.42;104980;1260;96629;-73
2023/12/22 01:20:03;;;;;;;5.60;3.00;;;;;;;3.75;78.75;95964.33;105027;1258;96605;-73
2023/12/22 01:22:32;;;;;;;8.10;3.00;;;;;;;3.77;78.81;95965.92;105001;1260;110261;-73
2023/12/22 01:25:01;;;;;;;5.70;2.90;;;;;;;3.78;78.82;95961.97;105312;1258;96549;-73
2023/12/22 01:27:29;;;;;;;6.30;3.10;;;;;;;3.80;78.70;95957.09;104820;1263;106697;-74
2023/12/22 01:29:57;;;;;;;6.90;2.80;;;;;;;3.80;78.73;95942.80;105074;1257;96703;-74
2023/12/22 01:32:24;;;;;;;7.50;3.20;;;;;;;3.82;78.84;95951.80;104788;1260;96605;-71
2023/12/22 01:34:52;;;;;;;6.40;2.70;;;;;;;3.82;78.86;95938.95;104718;1257;109882;-74
2023/12/22 01:37:20;;;;;;;6.50;2.90;;;;;;;3.83;79.10;95927.82;104989;1260;96712;-74
2023/12/22 01:39:48;;;;;;;5.90;2.70;;;;;;;3.84;79.05;95929.27;104739;1260;107620;-74
2023/12/22 01:42:16;;;;;;;7.80;3.10;;;;;;;3.86;78.72;95930.36;105026;1260;96640;-74
2023/12/22 01:44:44;;;;;;;7.60;2.70;;;;;;;3.87;78.66;95930.98;104796;1261;97567;-73
2023/12/22 01:47:13;;;;;;;6.60;2.90;;;;;;;3.90;78.89;95935.61;104973;1257;110150;-72
2023/12/22 01:49:41;;;;;;;7.00;2.80;;;;;;;3.92;78.98;95934.49;104989;1260;97717;-74
2023/12/22 01:52:09;;;;;;;7.40;2.80;;;;;;;3.95;78.77;95937.04;104745;1257;107655;-73
2023/12/22 01:54:37;;;;;;;6.70;2.80;;;;;;;3.97;79.02;95943.66;104915;1271;96694;-73
2023/12/22 01:57:06;;;;;;;8.50;3.20;;;;;;;3.99;78.96;95941.70;104941;1257;96694;-73
2023/12/22 01:59:34;;;;;;;4.80;2.30;;;;;;;4.03;78.96;95946.98;105015;1260;109975;-74
2023/12/22 02:02:02;;;;;;;8.90;2.80;;;;;;;4.07;78.86;95946.79;105055;1257;96610;-73
2023/12/22 02:04:31;;;;;;;8.70;3.00;;;;;;;4.09;79.09;95956.23;104886;1261;107591;-75
2023/12/22 02:07:01;;;;;;;8.70;2.80;;;;;;;4.12;78.93;95962.75;105046;1258;96610;-74
2023/12/22 02:09:30;;;;;;;8.00;3.30;;;;;;;4.16;78.92;95961.52;106138;1257;97952;-72
2023/12/22 02:11:58;;;;;;;5.90;3.00;;;;;;;4.21;78.90;95960.73;104818;1257;109989;-73
2023/12/22 02:14:26;;;;;;;8.50;3.50;;;;;;;4.24;78.89;95955.31;104728;1262;96693;-73
2023/12/22 02:17:08;;;;;;;12.00;4.20;;;;;;;4.28;78.79;95955.94;104747;1257;107774;-73
2023/12/22 02:19:39;;;;;;;12.90;3.70;;;;;;;4.32;78.90;95958.90;104725;1264;96715;-73
2023/12/22 02:22:07;;;;;;;13.80;3.70;;;;;;;4.36;78.76;95962.79;104718;1260;96517;-73
2023/12/22 02:24:37;;;;;;;12.90;3.40;;;;;;;4.38;78.92;95966.43;105020;1260;109911;-74
2023/12/22 02:27:34;;;;;;;11.10;3.20;;;;;;;4.41;78.83;95962.84;105033;1262;97528;-73
2023/12/22 02:30:22;;;;;;;12.80;3.20;;;;;;;4.44;78.79;95960.70;105078;1264;107613;-74
2023/12/22 02:32:56;;;;;;;12.80;3.60;;;;;;;4.47;78.79;95970.98;104882;1263;98005;-73
2023/12/22 02:35:26;;;;;;;11.30;3.30;;;;;;;4.51;78.70;95970.86;104896;1260;97532;-74
2023/12/22 02:37:57;;;;;;;16.10;3.50;;;;;;;4.53;78.76;95965.48;104756;1263;109890;-74
2023/12/22 02:40:26;;;;;;;12.50;3.20;;;;;;;4.56;78.69;95966.41;105027;1257;96699;-73
2023/12/22 02:42:54;;;;;;;13.30;3.00;;;;;;;4.58;78.74;95955.67;104981;1258;107543;-73
2023/12/22 02:45:22;;;;;;;12.60;3.40;;;;;;;4.60;78.72;95961.29;105130;1264;96694;-74
2023/12/22 02:47:50;;;;;;;17.00;3.70;;;;;;;4.62;78.66;95962.56;105064;1260;96522;-74
2023/12/22 02:50:18;;;;;;;16.60;3.60;;;;;;;4.63;78.72;95970.16;105078;1262;108780;-73
2023/12/22 02:52:46;;;;;;;15.20;3.20;;;;;;;4.64;78.65;95973.04;105237;1258;96631;-74
2023/12/22 02:55:14;;;;;;;16.70;3.50;;;;;;;4.65;78.57;95966.33;105231;1260;109098;-74
2023/12/22 02:57:42;;;;;;;17.10;3.40;;;;;;;4.66;78.58;95965.31;104914;1261;96630;-74
2023/12/22 03:00:10;;;;;;;13.00;3.70;;;;;;;4.66;78.47;95972.91;105006;1257;96716;-73
2023/12/22 03:02:38;;;;;;;14.00;2.90;;;;;;;4.64;78.51;95986.54;105003;1257;109958;-73
2023/12/22 03:05:06;;;;;;;12.60;3.40;;;;;;;4.62;78.32;96001.45;104718;1271;97014;-73
2023/12/22 03:07:34;;;;;;;14.50;3.00;;;;;;;4.59;78.19;96018.77;105055;1261;107659;-73
2023/12/22 03:10:02;;;;;;;20.00;3.10;;;;;;;4.56;78.14;96051.75;105106;1272;96605;-72
2023/12/22 03:12:30;;;;;;;6.10;1.80;;;;;;;4.33;77.50;96057.98;105162;1263;97112;-73
2023/12/22 03:14:58;;;;;;;9.80;2.00;;;;;;;3.82;77.16;96061.30;105005;1261;109955;-73
2023/12/22 03:17:26;;;;;;;8.90;1.90;;;;;;;3.52;77.58;96068.80;105041;1261;97165;-72
2023/12/22 03:19:53;;;;;;;8.90;2.20;;;;;;;3.35;77.80;96077.55;104958;1261;107620;-74
2023/12/22 03:22:21;;;;;;;5.70;1.80;;;;;;;3.16;77.66;96051.02;105114;1273;96619;-73
2023/12/22 03:24:49;;;;;;;8.30;1.80;;;;;;;3.05;77.76;96052.22;105488;1257;96535;-72
2023/12/22 03:27:18;;;;;;;8.40;2.70;;;;;;;2.96;77.82;96065.98;105111;1257;109395;-72
2023/12/22 03:29:45;;;;;;;9.60;2.30;;;;;;;2.85;77.72;96064.10;104935;1260;97525;-73
2023/12/22 03:32:13;;;;;;;9.60;2.70;;;;;;;2.76;77.78;96042.23;105011;1267;106644;-73
2023/12/22 03:34:41;;;;;;;10.40;2.10;;;;;;;2.67;77.76;96019.69;104983;1260;96613;-74
2023/12/22 03:37:09;;;;;;;9.90;2.60;;;;;;;2.64;77.92;96018.23;104989;1261;96619;-74
2023/12/22 03:39:37;;;;;;;10.60;2.80;;;;;;;2.64;77.82;96014.91;105039;1257;109949;-73
2023/12/22 03:42:05;;;;;;;10.50;2.00;;;;;;;2.61;77.73;96012.01;104998;1260;96520;-73
2023/12/22 03:44:33;;;;;;;8.40;2.30;;;;;;;2.58;77.62;96009.47;104772;1261;107653;-72
2023/12/22 03:47:01;;;;;;;11.90;2.90;;;;;;;2.55;77.68;96003.86;104962;1261;96697;-72
2023/12/22 03:49:29;;;;;;;13.30;2.50;;;;;;;2.51;77.46;96009.06;104887;1261;96646;-72
2023/12/22 03:51:56;;;;;;;12.30;2.70;;;;;;;2.46;77.54;96003.60;104990;1260;109892;-72
2023/12/22 03:54:24;;;;;;;9.80;2.40;;;;;;;2.41;77.60;96002.23;104771;1263;96707;-72
2023/12/22 03:56:52;;;;;;;10.60;3.30;;;;;;;2.37;77.64;96001.85;104912;1260;107737;-72
2023/12/22 03:59:20;;;;;;;8.40;3.30;;;;;;;2.35;77.66;96004.02;104973;1262;96646;-74
2023/12/22 04:01:57;;;;;;;13.50;4.40;;;;;;;2.31;77.65;95995.73;104991;1263;96848;-73
2023/12/22 04:04:27;;;;;;;12.80;3.30;;;;;;;2.28;77.76;95993.22;104749;1262;109512;-73
2023/12/22 04:06:55;;;;;;;11.70;4.20;;;;;;;2.25;77.72;95987.07;104979;1261;96611;-73
2023/12/22 04:09:23;;;;;;;7.80;3.30;;;;;;;2.24;77.81;95993.60;104670;1263;107665;-74
2023/12/22 04:11:51;;;;;;;10.90;3.40;;;;;;;2.23;77.62;95996.63;105171;1261;97916;-74
2023/12/22 04:14:18;;;;;;;12.60;2.70;;;;;;;2.24;77.66;95996.39;105195;1260;96609;-74
2023/12/22 04:16:46;;;;;;;13.80;3.20;;;;;;;2.26;77.83;95996.39;105331;1257;109929;-72
2023/12/22 04:19:15;;;;;;;13.80;3.60;;;;;;;2.28;77.60;95996.20;105620;1257;96765;-72
2023/12/22 04:21:43;;;;;;;11.90;2.60;;;;;;;2.31;78.14;95988.29;105355;1260;107186;-72
2023/12/22 04:24:11;;;;;;;8.30;2.70;;;;;;;2.36;77.89;95993.06;105134;1257;97749;-74
2023/12/22 04:26:38;;;;;;;11.70;3.00;;;;;;;2.41;77.90;95990.55;104805;1259;96597;-73
2023/12/22 04:29:06;;;;;;;12.40;2.70;;;;;;;2.48;77.93;95984.98;105020;1261;109914;-72
2023/12/22 04:31:34;;;;;;;10.40;2.90;;;;;;;2.55;77.87;95986.65;104887;1261;96544;-72
2023/12/22 04:34:02;;;;;;;14.10;3.80;;;;;;;2.62;77.97;95993.03;105209;1259;106926;-73
2023/12/22 04:36:30;;;;;;;19.50;5.60;;;;;;;2.69;77.82;95996.23;105450;1261;96715;-72
2023/12/22 04:38:57;;;;;;;23.10;6.70;;;;;;;2.75;77.87;95998.17;104930;1260;96601;-73
2023/12/22 04:41:25;;;;;;;31.40;10.50;;;;;;;2.81;77.94;95998.17;105252;1258;109905;-74
2023/12/22 04:43:53;;;;;;;25.70;6.60;;;;;;;2.88;77.90;96002.80;105002;1261;96736;-73
2023/12/22 04:46:21;;;;;;;15.70;6.00;;;;;;;2.96;78.01;96009.29;104790;1260;107671;-74
2023/12/22 04:48:49;;;;;;;20.10;4.90;;;;;;;3.02;78.12;96025.71;105087;1264;96624;-71
2023/12/22 04:51:17;;;;;;;22.40;5.10;;;;;;;3.10;78.05;96031.28;104950;1261;96637;-73
2023/12/22 04:53:44;;;;;;;18.00;5.90;;;;;;;3.21;77.97;96046.91;104987;1260;109863;-73
2023/12/22 04:56:12;;;;;;;16.80;4.60;;;;;;;3.23;77.68;96050.10;104824;1257;96551;-72
2023/12/22 04:58:40;;;;;;;14.90;6.30;;;;;;;3.14;77.75;96049.33;104832;1257;107648;-72
2023/12/22 05:01:08;;;;;;;19.10;6.00;;;;;;;2.99;77.30;96028.98;105070;1262;96637;-72
2023/12/22 05:03:36;;;;;;;14.90;5.00;;;;;;;2.89;77.67;96033.03;105003;1260;97746;-74
2023/12/22 05:06:04;;;;;;;17.30;5.70;;;;;;;2.83;77.49;96039.45;105068;1260;109572;-73
2023/12/22 05:08:32;;;;;;;18.80;5.40;;;;;;;2.80;77.60;96040.61;104832;1259;96589;-72
2023/12/22 05:10:59;;;;;;;17.30;5.10;;;;;;;2.79;77.51;96046.45;104726;1258;107585;-73
2023/12/22 05:13:28;;;;;;;19.90;5.50;;;;;;;2.80;77.76;96046.59;105217;1260;96691;-72
2023/12/22 05:15:55;;;;;;;18.70;5.60;;;;;;;2.81;77.68;96052.55;105064;1258;96624;-73
2023/12/22 05:18:24;;;;;;;18.40;4.90;;;;;;;2.86;77.55;96057.91;104725;1257;109922;-72
2023/12/22 05:20:53;;;;;;;15.00;3.60;;;;;;;2.92;77.62;96067.74;104962;1261;98203;-74
2023/12/22 05:23:21;;;;;;;14.40;4.60;;;;;;;2.93;77.71;96085.80;105183;1261;106656;-72
2023/12/22 05:25:49;;;;;;;15.00;3.90;;;;;;;2.79;77.32;96087.10;104747;1258;96605;-73
2023/12/22 05:28:17;;;;;;;17.10;3.90;;;;;;;2.57;77.23;96092.69;104763;1258;96716;-76
2023/12/22 05:30:45;;;;;;;12.30;3.70;;;;;;;2.43;77.27;96119.05;104872;1260;109315;-75
2023/12/22 05:33:13;;;;;;;12.40;3.90;;;;;;;2.35;77.56;96120.41;105190;1261;98038;-76
2023/12/22 05:35:41;;;;;;;12.20;3.20;;;;;;;2.31;77.31;96108.04;104908;1257;107703;-73
2023/12/22 05:38:09;;;;;;;14.80;4.70;;;;;;;2.26;77.46;96100.09;105201;1261;97906;-74
2023/12/22 05:40:36;;;;;;;12.80;3.90;;;;;;;2.21;77.57;96100.48;105157;1261;96491;-73
2023/12/22 05:43:04;;;;;;;14.40;4.40;;;;;;;2.17;77.60;96101.02;105249;1261;108982;-72
2023/12/22 05:45:32;;;;;;;19.90;5.30;;;;;;;2.13;77.59;96097.85;105391;1260;96517;-72
2023/12/22 05:48:00;;;;;;;10.50;3.30;;;;;;;2.10;77.91;96095.70;105094;1258;105528;-71
2023/12/22 05:50:28;;;;;;;13.80;4.30;;;;;;;2.09;77.79;96097.68;105491;1258;96711;-73
2023/12/22 05:52:55;;;;;;;15.30;3.90;;;;;;;2.07;77.83;96105.67;105075;1261;97849;-73
2023/12/22 05:55:23;;;;;;;14.30;4.10;;;;;;;2.05;77.68;96107.46;105167;1260;109961;-73
2023/12/22 05:57:51;;;;;;;12.00;3.80;;;;;;;2.04;77.80;96099.86;105402;1274;96621;-72
2023/12/22 06:00:19;;;;;;;10.90;3.60;;;;;;;2.06;77.79;96099.87;105384;1264;108278;-73
2023/12/22 06:02:47;;;;;;;15.20;5.10;;;;;;;2.07;77.92;96113.35;105212;1272;96690;-72
2023/12/22 06:05:15;;;;;;;14.40;3.00;;;;;;;2.07;77.86;96108.10;104913;1264;96625;-70
2023/12/22 06:07:43;;;;;;;14.20;3.70;;;;;;;2.07;77.75;96110.23;104996;1259;110670;-72
2023/12/22 06:10:11;;;;;;;12.80;4.40;;;;;;;2.07;77.67;96107.80;104940;1261;96543;-72
2023/12/22 06:12:39;;;;;;;12.90;3.60;;;;;;;2.08;77.37;96105.29;108130;1257;107224;-71
2023/12/22 06:15:07;;;;;;;12.50;4.00;;;;;;;2.09;77.65;96106.27;108243;1256;94558;-71
2023/12/22 06:17:35;;;;;;;13.60;3.90;;;;;;;2.09;77.79;96103.98;108303;1257;94266;-71
2023/12/22 06:20:03;;;;;;;12.40;4.00;;;;;;;2.11;77.69;96103.62;107405;1256;109369;-73
2023/12/22 06:22:33;;;;;;;15.70;4.20;;;;;;;2.17;77.38;96099.31;105165;1256;96620;-76
2023/12/22 06:25:08;;;;;;;13.60;4.20;;;;;;;2.23;77.71;96093.15;106825;1258;107627;-76
2023/12/22 06:27:37;;;;;;;17.60;3.70;;;;;;;2.30;77.74;96094.68;104950;1258;96714;-77
2023/12/22 06:30:10;;;;;;;16.00;4.00;;;;;;;2.34;77.20;96094.15;105106;1261;96625;-79
2023/12/22 06:32:40;;;;;;;24.80;6.30;;;;;;;2.36;77.70;96092.91;104782;1262;111946;-74
2023/12/22 06:35:10;;;;;;;14.70;3.70;;;;;;;2.39;77.29;96100.19;105019;1261;97425;-73
2023/12/22 06:37:44;;;;;;;16.40;3.90;;;;;;;2.41;77.26;96100.73;104922;1273;107672;-74
2023/12/22 06:40:12;;;;;;;15.30;5.00;;;;;;;2.42;77.46;96106.39;105149;1261;131219;-74
2023/12/22 06:42:40;;;;;;;17.60;3.90;;;;;;;2.42;77.12;96111.48;105280;1261;96621;-79
2023/12/22 06:45:10;;;;;;;17.10;3.90;;;;;;;2.43;77.35;96117.52;105112;1257;109952;-74
2023/12/22 06:47:38;;;;;;;14.80;4.10;;;;;;;2.45;77.36;96126.30;105092;1260;96644;-73
2023/12/22 06:50:37;;;;;;;19.20;5.00;;;;;;;2.46;76.97;96133.16;105221;1257;106613;-83
2023/12/22 06:54:06;;;;;;;11.60;3.10;;;;;;;2.51;77.43;96142.04;105335;1258;96631;-79
2023/12/22 06:57:46;;;;;;;;;;;;;;;;;;;;;
2023/12/22 07:00:55;;;;;;;15.00;3.90;;;;;;;2.60;77.18;96163.66;104943;1265;111832;-79
2023/12/22 07:03:31;;;;;;;17.10;4.40;;;;;;;2.55;77.16;96172.60;105267;1261;97642;-83
2023/12/22 07:06:09;;;;;;;16.70;3.00;;;;;;;2.54;77.00;96164.66;105115;1260;108502;-81
2023/12/22 07:08:40;;;;;;;13.20;3.10;;;;;;;2.49;77.01;96173.11;105020;1258;96839;-80
2023/12/22 07:11:08;;;;;;;13.70;3.00;;;;;;;2.41;76.80;96175.22;105318;1261;97916;-77
2023/12/22 07:13:37;;;;;;;10.20;2.90;;;;;;;2.31;76.69;96169.27;105152;1259;110173;-79
2023/12/22 07:16:27;;;;;;;15.80;4.10;;;;;;;2.24;76.83;96169.27;102185;1293;636457;-77
2023/12/22 07:19:24;;;;;;;;;;;;;;;;;;;;;
2023/12/22 07:32:37;;;;;;;12.90;3.80;;;;;;;2.43;76.38;96185.66;103119;1283;648686;-73
2023/12/22 07:35:07;;;;;;;16.00;5.30;;;;;;;2.34;76.38;96189.45;105099;1263;94374;-71
2023/12/22 07:37:36;;;;;;;20.70;5.40;;;;;;;2.28;76.84;96205.73;104867;1264;95284;-73
2023/12/22 07:40:07;;;;;;;18.00;3.90;;;;;;;2.20;76.63;96213.48;104834;1266;106991;-73
2023/12/22 07:42:34;;;;;;;13.60;4.20;;;;;;;2.14;76.57;96216.16;104995;1266;95269;-73
2023/12/22 07:45:04;;;;;;;20.00;3.60;;;;;;;2.08;76.58;96217.52;104894;1278;107208;-80
2023/12/22 07:47:33;;;;;;;17.40;4.10;;;;;;;2.01;76.42;96220.19;104691;1269;94302;-83
2023/12/22 07:50:09;;;;;;;13.10;3.40;;;;;;;1.94;76.38;96229.00;104785;1267;94472;-75
2023/12/22 07:52:38;;;;;;;18.20;5.70;;;;;;;1.87;76.40;96224.30;105032;1261;107668;-72
2023/12/22 07:55:10;;;;;;;20.00;6.60;;;;;;;1.85;76.51;96234.61;104954;1263;95488;-72
2023/12/22 07:57:38;;;;;;;17.40;5.10;;;;;;;1.81;76.44;96238.05;104990;1264;106293;-76
2023/12/22 08:00:10;;;;;;;19.10;6.30;;;;;;;1.80;76.54;96245.21;105031;1266;95347;-79
2023/12/22 08:02:38;;;;;;;20.50;6.40;;;;;;;1.77;76.35;96252.55;104780;1266;95280;-76
2023/12/22 08:05:06;;;;;;;19.60;4.80;;;;;;;1.76;76.64;96254.02;105026;1266;108100;-78
2023/12/22 08:07:37;;;;;;;15.30;4.60;;;;;;;1.74;76.47;96255.61;104847;1264;95256;-77
2023/12/22 08:10:10;;;;;;;14.90;3.90;;;;;;;1.72;76.48;96265.52;104648;1274;107765;-80
2023/12/22 08:12:42;;;;;;;17.50;4.40;;;;;;;1.72;76.61;96269.54;105130;1267;95249;-76
2023/12/22 08:15:12;;;;;;;17.90;4.80;;;;;;;1.75;76.47;96264.73;104979;1262;95261;-78
2023/12/22 08:17:59;;;;;;;17.90;4.60;;;;;;;1.79;76.46;96262.89;105043;1260;109063;-78
2023/12/22 08:20:30;;;;;;;15.90;4.70;;;;;;;1.81;76.48;96262.90;105021;1258;95247;-77
2023/12/22 08:23:04;;;;;;;21.00;5.40;;;;;;;1.84;76.43;96265.63;105273;1260;106636;-76
2023/12/22 08:25:38;;;;;;;;;;;;;;;1.89;76.38;96265.38;105103;1260;95367;-75
2023/12/22 08:28:07;;;;;;;19.40;5.10;;;;;;;1.93;76.24;96268.18;105151;1260;95243;-78
2023/12/22 08:30:36;;;;;;;15.10;5.30;;;;;;;1.98;76.30;96272.49;105264;1256;108592;-78
2023/12/22 08:33:04;;;;;;;18.10;4.70;;;;;;;2.01;76.27;96276.33;104970;1260;95363;-80
2023/12/22 08:35:35;;;;;;;18.20;4.80;;;;;;;2.02;76.21;96274.14;104838;1262;105557;-80
2023/12/22 08:38:04;;;;;;;14.80;4.00;;;;;;;2.06;76.43;96275.14;104849;1266;95338;-77
2023/12/22 08:40:37;;;;;;;15.10;4.30;;;;;;;2.11;76.21;96273.38;105363;1260;95310;-79
2023/12/22 08:43:09;;;;;;;26.40;7.90;;;;;;;2.14;76.03;96271.05;105110;1263;108652;-78
2023/12/22 08:45:39;;;;;;;27.20;9.70;;;;;;;2.15;75.96;96277.79;105477;1258;95562;-77
2023/12/22 08:48:09;;;;;;;22.40;5.90;;;;;;;2.18;76.25;96275.41;105201;1257;108414;-79
2023/12/22 08:50:37;;;;;;;15.40;4.40;;;;;;;2.21;75.91;96275.69;105405;1263;95363;-77
2023/12/22 08:53:05;;;;;;;14.20;4.30;;;;;;;2.23;76.07;96271.14;105168;1264;96509;-77
2023/12/22 08:55:35;;;;;;;19.20;4.30;;;;;;;2.26;75.84;96274.73;104815;1258;107711;-75
2023/12/22 08:58:04;;;;;;;16.20;4.60;;;;;;;2.29;75.67;96267.52;105426;1255;95339;-77
2023/12/22 09:00:34;;;;;;;16.00;4.10;;;;;;;2.31;75.72;96266.80;105361;1251;107575;-78
2023/12/22 09:03:04;;;;;;;17.20;4.40;;;;;;;2.34;75.62;96262.55;105772;1256;96855;-76
2023/12/22 09:05:32;;;;;;;18.10;3.80;;;;;;;2.37;75.70;96263.50;105614;1257;95205;-77
2023/12/22 09:08:02;;;;;;;21.70;5.00;;;;;;;2.41;75.56;96258.15;105434;1257;109223;-76
2023/12/22 09:10:33;;;;;;;13.90;3.70;;;;;;;2.44;75.24;96266.45;105750;1254;96608;-82
2023/12/22 09:13:06;;;;;;;18.00;4.50;;;;;;;2.47;75.20;96275.27;105372;1275;107365;-80
2023/12/22 09:15:36;;;;;;;19.30;4.40;;;;;;;2.50;75.08;96270.84;105511;1257;96062;-75
2023/12/22 09:18:05;;;;;;;15.20;3.70;;;;;;;2.56;75.20;96276.84;105540;1257;95301;-75
2023/12/22 09:20:36;;;;;;;15.10;4.10;;;;;;;2.61;74.85;96276.95;105415;1258;108566;-78
2023/12/22 09:23:14;;;;;;;21.10;5.60;;;;;;;2.64;74.88;96273.98;105358;1260;95269;-81
2023/12/22 09:26:02;;;;;;;17.20;4.00;;;;;;;2.70;75.05;96266.66;102897;1288;636039;-78
2023/12/22 09:28:33;;;;;;;19.80;4.90;;;;;;;2.72;74.48;96268.31;105224;1262;94841;-86
2023/12/22 09:31:22;;;;;;;20.60;4.00;;;;;;;2.79;74.36;96262.95;102607;1289;635875;-79
2023/12/22 09:33:54;;;;;;;14.50;3.70;;;;;;;2.81;74.58;96271.85;104705;1271;94244;-80
2023/12/22 09:36:23;;;;;;;22.10;4.60;;;;;;;2.86;74.88;96268.80;104680;1266;94426;-78
2023/12/22 09:38:51;;;;;;;25.10;6.40;;;;;;;2.91;74.55;96270.13;104726;1271;106834;-78
2023/12/22 09:41:23;;;;;;;23.70;4.50;;;;;;;2.94;74.41;96269.69;105162;1266;95920;-80
2023/12/22 09:44:01;;;;;;;15.10;4.30;;;;;;;2.97;74.02;96270.48;105022;1265;166733;-80
2023/12/22 09:46:30;;;;;;;15.00;4.20;;;;;;;3.00;74.05;96279.92;105246;1257;95321;-79
2023/12/22 09:49:03;;;;;;;;;;;;;;;3.02;74.08;96275.85;105294;1260;95168;-77
2023/12/22 09:51:32;;;;;;;18.70;4.30;;;;;;;3.03;73.84;96275.44;105241;1260;107294;-77
2023/12/22 09:54:03;;;;;;;17.30;4.00;;;;;;;3.05;74.00;96273.86;105498;1262;95234;-74
2023/12/22 09:56:33;;;;;;;14.90;4.30;;;;;;;3.09;73.39;96269.48;105232;1269;107448;-76
2023/12/22 09:59:02;;;;;;;15.90;4.10;;;;;;;3.12;73.99;96271.86;105055;1258;96001;-72
2023/12/22 10:01:31;;;;;;;16.00;3.90;;;;;;;3.16;73.79;96274.30;105399;1260;95176;-74
2023/12/22 10:03:59;;;;;;;18.40;4.10;;;;;;;3.19;73.72;96276.50;105565;1262;108578;-74
2023/12/22 10:06:27;;;;;;;15.00;3.90;;;;;;;3.24;73.67;96279.25;105142;1260;96623;-73
2023/12/22 10:08:56;;;;;;;16.70;4.30;;;;;;;3.28;73.54;96274.00;105217;1269;107677;-72
2023/12/22 10:11:25;;;;;;;17.60;5.80;;;;;;;3.33;73.18;96277.77;105405;1260;95244;-72
2023/12/22 10:13:55;;;;;;;18.40;4.90;;;;;;;3.37;72.87;96277.41;107066;1260;95250;-74
2023/12/22 10:16:23;;;;;;;14.80;3.80;;;;;;;3.41;73.18;96276.69;105409;1261;108134;-73
2023/12/22 10:18:51;;;;;;;19.70;4.90;;;;;;;3.45;72.94;96273.02;105345;1256;96195;-74
2023/12/22 10:21:21;;;;;;;14.10;3.50;;;;;;;3.48;73.05;96271.21;105039;1258;107732;-76
2023/12/22 10:23:49;;;;;;;16.00;5.00;;;;;;;3.48;72.31;96264.73;104950;1260;95691;-73
2023/12/22 10:26:19;;;;;;;18.50;4.70;;;;;;;3.46;72.45;96267.70;105077;1260;95202;-77
2023/12/22 10:28:51;;;;;;;19.40;3.90;;;;;;;3.47;72.46;96262.83;105034;1257;107740;-76
2023/12/22 10:31:19;;;;;;;22.30;5.50;;;;;;;3.51;72.40;96260.23;104814;1271;95264;-74
2023/12/22 10:33:46;;;;;;;17.50;4.30;;;;;;;3.56;72.73;96262.57;105049;1264;107595;-74
2023/12/22 10:36:14;;;;;;;19.90;7.00;;;;;;;3.58;71.99;96260.69;104982;1264;96085;-75
2023/12/22 10:38:43;;;;;;;19.70;5.20;;;;;;;3.55;71.99;96250.98;105027;1264;95321;-74
2023/12/22 10:41:11;;;;;;;16.40;4.70;;;;;;;3.56;71.90;96250.83;105302;1271;108448;-73
2023/12/22 10:43:40;;;;;;;17.00;3.90;;;;;;;3.59;71.67;96248.85;104906;1271;95271;-75
2023/12/22 10:46:10;;;;;;;19.50;4.80;;;;;;;3.62;71.82;96235.27;105168;1262;107953;-76
2023/12/22 10:48:43;;;;;;;14.00;4.50;;;;;;;3.66;71.73;96228.07;104756;1263;95180;-76
2023/12/22 10:51:11;;;;;;;20.40;5.50;;;;;;;3.68;71.67;96224.85;104944;1263;95325;-73
2023/12/22 10:53:42;;;;;;;22.00;5.80;;;;;;;3.72;71.59;96219.73;105127;1263;108376;-73
2023/12/22 10:56:11;;;;;;;23.10;5.30;;;;;;;3.77;71.85;96222.83;105055;1261;95192;-76
2023/12/22 10:58:39;;;;;;;19.20;6.10;;;;;;;3.79;71.74;96227.05;105078;1258;106740;-74
2023/12/22 11:03:38;;;;;;;21.30;5.70;;;;;;;3.84;71.61;96224.20;102293;1295;635809;-84
2023/12/22 11:06:10;;;;;;;19.20;5.30;;;;;;;3.84;71.73;96223.77;104584;1273;94537;-78
2023/12/22 11:08:42;;;;;;;16.00;4.30;;;;;;;3.88;71.91;96220.98;104665;1271;94472;-80
2023/12/22 11:11:19;;;;;;;22.70;6.80;;;;;;;3.92;71.71;96225.06;104416;1280;107207;-79
2023/12/22 11:13:48;;;;;;;15.70;4.70;;;;;;;3.90;71.71;96228.86;104414;1276;95696;-79
2023/12/22 11:16:18;;;;;;;16.30;5.10;;;;;;;3.88;71.47;96235.73;104446;1270;107149;-79
2023/12/22 11:18:48;;;;;;;12.70;3.90;;;;;;;3.82;71.36;96235.73;104660;1269;94241;-77
2023/12/22 11:21:18;;;;;;;17.50;4.60;;;;;;;3.76;71.44;96237.70;104811;1269;94263;-80
2023/12/22 11:23:49;;;;;;;23.80;5.10;;;;;;;3.75;71.38;96236.39;104597;1268;107502;-77
2023/12/22 11:26:18;;;;;;;16.20;5.10;;;;;;;3.72;71.34;96241.88;104894;1268;96437;-78
2023/12/22 11:28:47;;;;;;;20.30;5.80;;;;;;;3.68;71.68;96231.06;104817;1278;107749;-77
2023/12/22 11:31:15;;;;;;;19.40;5.20;;;;;;;3.64;71.68;96228.08;104676;1279;95253;-74
2023/12/22 11:33:45;;;;;;;20.70;7.20;;;;;;;3.60;71.35;96225.06;105207;1263;95281;-74
2023/12/22 11:36:31;;;;;;;16.20;4.90;;;;;;;3.57;71.68;96223.56;105284;1263;108556;-75
2023/12/22 11:38:59;;;;;;;22.20;6.50;;;;;;;3.54;71.47;96216.44;105021;1274;95496;-79
2023/12/22 11:41:32;;;;;;;17.10;5.20;;;;;;;3.53;71.37;96210.45;105116;1271;107123;-80
2023/12/22 11:44:04;;;;;;;20.80;5.60;;;;;;;3.53;71.51;96203.27;104954;1267;95330;-74
2023/12/22 11:46:33;;;;;;;21.30;5.80;;;;;;;3.51;71.42;96204.33;105047;1274;95885;-75
2023/12/22 11:49:02;;;;;;;21.30;6.00;;;;;;;3.48;71.22;96199.50;105292;1262;108682;-76
2023/12/22 11:51:36;;;;;;;18.50;5.90;;;;;;;3.46;71.27;96203.06;105227;1260;95249;-74
2023/12/22 11:54:43;;;;;;;21.90;6.30;;;;;;;3.45;71.40;96199.94;105216;1260;107078;-75